Map

Track Data

SID SEASON NUMBER BASIN SUBBASIN NAME ISO_TIME NATURE LAT LON WMO_WIND WMO_PRES WMO_AGENCY TRACK_TYPE DIST2LAND LANDFALL IFLAG USA_AGENCY USA_ATCF_ID USA_LAT USA_LON USA_RECORD USA_STATUS USA_WIND USA_PRES USA_SSHS USA_R34_NE USA_R34_SE USA_R34_SW USA_R34_NW USA_R50_NE USA_R50_SE USA_R50_SW USA_R50_NW USA_R64_NE USA_R64_SE USA_R64_SW USA_R64_NW USA_POCI USA_ROCI USA_RMW USA_EYE TOKYO_LAT TOKYO_LON TOKYO_GRADE TOKYO_WIND TOKYO_PRES TOKYO_R50_DIR TOKYO_R50_LONG TOKYO_R50_SHORT TOKYO_R30_DIR TOKYO_R30_LONG TOKYO_R30_SHORT TOKYO_LAND CMA_LAT CMA_LON CMA_CAT CMA_WIND CMA_PRES HKO_LAT HKO_LON HKO_CAT HKO_WIND HKO_PRES NEWDELHI_LAT NEWDELHI_LON NEWDELHI_GRADE NEWDELHI_WIND NEWDELHI_PRES NEWDELHI_CI NEWDELHI_DP NEWDELHI_POCI REUNION_LAT REUNION_LON REUNION_TYPE REUNION_WIND REUNION_PRES REUNION_TNUM REUNION_CI REUNION_RMW REUNION_R34_NE REUNION_R34_SE REUNION_R34_SW REUNION_R34_NW REUNION_R50_NE REUNION_R50_SE REUNION_R50_SW REUNION_R50_NW REUNION_R64_NE REUNION_R64_SE REUNION_R64_SW REUNION_R64_NW BOM_LAT BOM_LON BOM_TYPE BOM_WIND BOM_PRES BOM_TNUM BOM_CI BOM_RMW BOM_R34_NE BOM_R34_SE BOM_R34_SW BOM_R34_NW BOM_R50_NE BOM_R50_SE BOM_R50_SW BOM_R50_NW BOM_R64_NE BOM_R64_SE BOM_R64_SW BOM_R64_NW BOM_ROCI BOM_POCI BOM_EYE BOM_POS_METHOD BOM_PRES_METHOD NADI_LAT NADI_LON NADI_CAT NADI_WIND NADI_PRES WELLINGTON_LAT WELLINGTON_LON WELLINGTON_WIND WELLINGTON_PRES DS824_LAT DS824_LON DS824_STAGE DS824_WIND DS824_PRES TD9636_LAT TD9636_LON TD9636_STAGE TD9636_WIND TD9636_PRES TD9635_LAT TD9635_LON TD9635_WIND TD9635_PRES TD9635_ROCI NEUMANN_LAT NEUMANN_LON NEUMANN_CLASS NEUMANN_WIND NEUMANN_PRES MLC_LAT MLC_LON MLC_CLASS MLC_WIND MLC_PRES USA_GUST BOM_GUST BOM_GUST_PER REUNION_GUST REUNION_GUST_PER USA_SEAHGT USA_SEARAD_NE USA_SEARAD_SE USA_SEARAD_SW USA_SEARAD_NW STORM_SPEED STORM_DIR
1880177N19088 1880 7 NI BB NOT_NAMED 1880-06-25 00:00:00 TS 19.3000 88.3000 main 201 192 _________O____ -1 19.3000 88.3000 TC 30 2 270
1880177N19088 1880 7 NI BB NOT_NAMED 1880-06-25 03:00:00 TS 19.3000 88.2017 main 192 184 _________PO___ -1 19.3000 88.1525 TC 30 19.3000 88.3000 1 2 270
1880177N19088 1880 7 NI BB NOT_NAMED 1880-06-25 06:00:00 TS 19.2982 88.0537 main 184 168 _________OP___ -1 19.3000 88.0000 TC 30 19.2955 88.1344 1 3 269
1880177N19088 1880 7 NI BB NOT_NAMED 1880-06-25 09:00:00 TS 19.2969 87.8993 main 168 160 _________PP___ -1 19.3000 87.8425 TC 30 19.2927 87.9750 1 3 270
1880177N19088 1880 7 NI BB NOT_NAMED 1880-06-25 12:00:00 TS 19.2968 87.7641 main 160 153 _________OP___ -1 19.3000 87.7000 TC 30 19.2936 87.8281 1 2 270
1880177N19088 1880 7 NI BB NOT_NAMED 1880-06-25 15:00:00 TS 19.2962 87.6462 main 146 146 _________PO___ -1 19.2925 87.5925 TC 30 19.3000 87.7000 1 2 273
1880177N19088 1880 7 NI BB NOT_NAMED 1880-06-25 18:00:00 TS 19.3068 87.5469 main 139 139 _________OP___ -1 19.3000 87.5000 TC 30 19.3137 87.5937 1 2 283
1880177N19088 1880 7 NI BB NOT_NAMED 1880-06-25 21:00:00 TS 19.3387 87.4537 main 139 124 _________PP___ -1 19.3425 87.4075 TC 30 19.3349 87.5000 1 2 292
1880177N19088 1880 7 NI BB NOT_NAMED 1880-06-26 00:00:00 TS 19.3818 87.3531 main 124 107 _________OP___ -1 19.4000 87.3000 TC 30 19.3637 87.4062 1 2 292
1880177N19088 1880 7 NI BB NOT_NAMED 1880-06-26 03:00:00 TS 19.4250 87.2288 main 107 92 _________PO___ -1 19.4500 87.1575 TC 30 19.4000 87.3000 1 3 289
1880177N19088 1880 7 NI BB NOT_NAMED 1880-06-26 06:00:00 TS 19.4714 87.0802 main 92 76 _________OP___ -1 19.5000 87.0000 TC 30 19.4428 87.1603 1 3 289
1880177N19088 1880 7 NI BB NOT_NAMED 1880-06-26 09:00:00 TS 19.5213 86.9288 main 76 61 _________PP___ -1 19.5500 86.8500 TC 30 19.4926 87.0075 1 3 289
1880177N19088 1880 7 NI BB NOT_NAMED 1880-06-26 12:00:00 TS 19.5730 86.7755 main 61 49 _________OP___ -1 19.6000 86.7000 TC 30 19.5460 86.8510 1 3 290
1880177N19088 1880 7 NI BB NOT_NAMED 1880-06-26 15:00:00 TS 19.6250 86.6212 main 49 35 _________PO___ -1 19.6500 86.5425 TC 30 19.6000 86.7000 1 3 290
1880177N19088 1880 7 NI BB NOT_NAMED 1880-06-26 18:00:00 TS 19.6709 86.4879 main 35 33 _________OP___ -1 19.7000 86.4000 TC 30 19.6418 86.5758 1 2 292
1880177N19088 1880 7 NI BB NOT_NAMED 1880-06-26 21:00:00 TS 19.7137 86.3824 main 33 22 _________PP___ -1 19.7424 86.3074 TC 30 19.6849 86.4573 1 2 295
1880177N19088 1880 7 NI BB NOT_NAMED 1880-06-27 00:00:00 TS 19.7678 86.2676 main 22 11 _________OP___ -1 19.8000 86.2000 TC 30 19.7355 86.3352 1 3 297
1880177N19088 1880 7 NI BB NOT_NAMED 1880-06-27 03:00:00 TS 19.8463 86.1038 main 11 0 _________PO___ -1 19.8925 86.0075 TC 30 19.8000 86.2000 1 4 298
1880177N19088 1880 7 NI BB NOT_NAMED 1880-06-27 06:00:00 TS 19.9428 85.9217 main 0 0 _________OP___ -1 20.0000 85.8000 TC 30 19.8856 86.0434 1 4 301
1880177N19088 1880 7 NI BB NOT_NAMED 1880-06-27 09:00:00 TS 20.0425 85.7612 main 0 0 _________PP___ -1 20.0999 85.6500 TC 30 19.9850 85.8725 1 4 304
1880177N19088 1880 7 NI BB NOT_NAMED 1880-06-27 12:00:00 TS 20.1459 85.5952 main 0 0 _________OP___ -1 20.2000 85.5000 TC 30 20.0918 85.6903 1 4 302
1880177N19088 1880 7 NI BB NOT_NAMED 1880-06-27 15:00:00 TS 20.2500 85.4037 main 0 0 _________PO___ -1 20.3000 85.3075 TC 30 20.2000 85.5000 1 4 299
1880177N19088 1880 7 NI BB NOT_NAMED 1880-06-27 18:00:00 TS 20.3439 85.2075 main 0 0 _________OP___ -1 20.4000 85.1000 TC 30 20.2877 85.3151 1 4 296
1880177N19088 1880 7 NI BB NOT_NAMED 1880-06-27 21:00:00 TS 20.4311 85.0148 main 0 0 _________PP___ -1 20.4849 84.9074 TC 30 20.3773 85.1221 1 4 298
1880177N19088 1880 7 NI BB NOT_NAMED 1880-06-28 00:00:00 TS 20.5392 84.8091 main 0 0 _________OP___ -1 20.6000 84.7000 TC 30 20.4783 84.9181 1 5 303
1880177N19088 1880 7 NI BB NOT_NAMED 1880-06-28 03:00:00 TS 20.6962 84.5788 main 0 0 _________PO___ -1 20.7925 84.4576 TC 30 20.6000 84.7000 1 6 308
1880177N19088 1880 7 NI BB NOT_NAMED 1880-06-28 06:00:00 TS 20.8807 84.3363 main 0 0 _________OP___ -1 21.0000 84.2000 TC 30 20.7615 84.4726 1 6 308
1880177N19088 1880 7 NI BB NOT_NAMED 1880-06-28 09:00:00 TS 21.0499 84.0938 main 0 0 _________PP___ -1 21.1574 83.9574 TC 30 20.9423 84.2301 1 6 305
1880177N19088 1880 7 NI BB NOT_NAMED 1880-06-28 12:00:00 TS 21.2135 83.8363 main 0 0 _________OP___ -1 21.3000 83.7000 TC 30 21.1270 83.9726 1 6 303
1880177N19088 1880 7 NI BB NOT_NAMED 1880-06-28 15:00:00 TS 21.3787 83.5538 main 0 0 _________PO___ -1 21.4575 83.4075 TC 30 21.3000 83.7000 1 6 300
1880177N19088 1880 7 NI BB NOT_NAMED 1880-06-28 18:00:00 TS 21.5238 83.2491 main 0 0 _________OP___ -1 21.6000 83.1000 TC 30 21.4476 83.3981 1 6 295
1880177N19088 1880 7 NI BB NOT_NAMED 1880-06-28 21:00:00 TS 21.6476 82.9350 main 0 0 _________PP___ -1 21.7150 82.7850 TC 30 21.5802 83.0850 1 6 292
1880177N19088 1880 7 NI BB NOT_NAMED 1880-06-29 00:00:00 TS 21.7488 82.6397 main 0 0 _________OP___ -1 21.8000 82.5000 TC 30 21.6977 82.7794 1 5 289
1880177N19088 1880 7 NI BB NOT_NAMED 1880-06-29 03:00:00 TS 21.8250 82.3924 main 0 0 _________PO___ -1 21.8499 82.2849 TC 30 21.8000 82.5000 1 4 289
1880177N19088 1880 7 NI BB NOT_NAMED 1880-06-29 06:00:00 TS 21.8945 82.1855 main 0 0 _________OP___ -1 21.9000 82.1000 TC 30 21.8891 82.2710 1 4 292
1880177N19088 1880 7 NI BB NOT_NAMED 1880-06-29 09:00:00 TS 21.9786 81.9848 main 0 0 _________PP___ -1 21.9925 81.9000 TC 30 21.9646 82.0697 1 4 295
1880177N19088 1880 7 NI BB NOT_NAMED 1880-06-29 12:00:00 TS 22.0664 81.7918 main 0 0 _________OP___ -1 22.1000 81.7000 TC 30 22.0329 81.8835 1 4 296
1880177N19088 1880 7 NI BB NOT_NAMED 1880-06-29 15:00:00 TS 22.1537 81.6000 main 0 0 _________PO___ -1 22.2075 81.5000 TC 30 22.1000 81.7000 1 4 295
1880177N19088 1880 7 NI BB NOT_NAMED 1880-06-29 18:00:00 TS 22.2262 81.4194 main 0 0 _________OP___ -1 22.3000 81.3000 TC 30 22.1708 81.5089 1 4 292
1880177N19088 1880 7 NI BB NOT_NAMED 1880-06-29 21:00:00 TS 22.2912 81.2262 main 0 0 _________PP___ -1 22.3601 81.1000 TC 30 22.2453 81.3103 1 4 289
1880177N19088 1880 7 NI BB NOT_NAMED 1880-06-30 00:00:00 TS 22.3481 81.0377 main 0 0 _________OP___ -1 22.4000 80.9000 TC 30 22.3222 81.1065 1 3 290
1880177N19088 1880 7 NI BB NOT_NAMED 1880-06-30 03:00:00 NR 22.4000 80.9000 main 0 __________O___ -1 TC 22.4000 80.9000 1 3 292

About IBTrACS Database

This database is a web-friendly format of International Best Track Archive for Climate Stewardship (IBTrACS), a global best track data archive curated by NOAA dating back to 1842.

Updated: 2021-11-26